createdAt,value
2022-12-18T00:03:32.378Z,102738.38
2022-12-18T00:08:35.303Z,102728.84
2022-12-18T00:13:38.515Z,102699.00
2022-12-18T00:18:43.292Z,102739.06
2022-12-18T00:23:46.701Z,102738.84
2022-12-18T00:28:50.151Z,102729.84
2022-12-18T00:33:55.884Z,102747.38
2022-12-18T00:38:59.685Z,102740.53
2022-12-18T00:44:02.789Z,102745.25
2022-12-18T00:49:07.061Z,102727.69
2022-12-18T00:54:09.917Z,102727.69
2022-12-18T00:59:14.301Z,102725.81
2022-12-18T01:04:18.488Z,102744.88
2022-12-18T01:09:22.053Z,102749.19
2022-12-18T01:14:24.929Z,102731.97
2022-12-18T01:19:30.738Z,102737.50
2022-12-18T01:24:33.488Z,102742.22
2022-12-18T01:29:36.232Z,102753.31
2022-12-18T01:34:40.586Z,102749.88
2022-12-18T01:39:43.532Z,102749.38
2022-12-18T01:45:02.597Z,102754.88
2022-12-18T01:50:10.375Z,102746.69
2022-12-18T01:55:13.899Z,102764.19
2022-12-18T02:00:20.177Z,102786.47
2022-12-18T02:05:30.598Z,102790.59
2022-12-18T02:10:36.733Z,102791.84
2022-12-18T02:15:42.802Z,102794.97
2022-12-18T02:20:50.241Z,102799.56
2022-12-18T02:26:03.943Z,102788.34
2022-12-18T02:31:08.838Z,102764.75
2022-12-18T02:36:13.138Z,102766.19
2022-12-18T02:41:18.054Z,102756.28
2022-12-18T02:46:31.227Z,102748.50
2022-12-18T02:51:42.004Z,102755.28
2022-12-18T02:56:51.381Z,102753.34
2022-12-18T03:02:00.038Z,102753.41
2022-12-18T03:07:05.629Z,102755.97
2022-12-18T03:12:25.633Z,102749.81
2022-12-18T03:17:33.579Z,102732.88
2022-12-18T03:22:37.545Z,102735.38
2022-12-18T03:27:46.074Z,102733.91
2022-12-18T03:32:59.997Z,102731.84
2022-12-18T03:38:03.953Z,102720.28
2022-12-18T03:43:13.209Z,102732.16
2022-12-18T03:48:20.814Z,102722.63
2022-12-18T03:53:30.446Z,102733.06
2022-12-18T03:58:37.676Z,102713.78
2022-12-18T04:03:51.918Z,102712.69
2022-12-18T04:08:56.564Z,102703.16
2022-12-18T04:14:07.022Z,102710.94
2022-12-18T04:19:10.547Z,102702.91
2022-12-18T04:24:17.007Z,102699.88
2022-12-18T04:29:31.536Z,102668.97
2022-12-18T04:34:35.780Z,102701.25
2022-12-18T04:39:38.892Z,102715.56
2022-12-18T04:44:48.730Z,102726.84
2022-12-18T04:49:51.554Z,102734.69
2022-12-18T04:54:54.371Z,102749.84
2022-12-18T04:59:58.578Z,102755.41
2022-12-18T05:05:01.338Z,102749.13
2022-12-18T05:10:10.387Z,102759.63
2022-12-18T05:15:14.538Z,102760.63
2022-12-18T05:20:17.354Z,102758.56
2022-12-18T05:25:20.389Z,102753.25
2022-12-18T05:30:24.799Z,102756.22
2022-12-18T05:35:27.595Z,102699.91
2022-12-18T05:40:30.868Z,102736.22
2022-12-18T05:45:39.099Z,102737.22
2022-12-18T05:50:43.064Z,102745.28
2022-12-18T05:55:46.469Z,102721.16
2022-12-18T06:00:50.717Z,102710.09
2022-12-18T06:05:53.515Z,102723.38
2022-12-18T06:10:56.491Z,102726.41
2022-12-18T06:16:04.207Z,102710.56
2022-12-18T06:21:07.371Z,102711.13
2022-12-18T06:26:12.332Z,102705.47
2022-12-18T06:31:16.547Z,102702.13
2022-12-18T06:36:19.542Z,102684.50
2022-12-18T06:41:23.357Z,102675.31
2022-12-18T06:46:27.538Z,102665.69
2022-12-18T06:51:30.273Z,102651.22
2022-12-18T06:56:33.057Z,102650.53
2022-12-18T07:01:37.550Z,102647.59
2022-12-18T07:06:40.464Z,102646.00
2022-12-18T07:11:43.288Z,102634.78
2022-12-18T07:16:47.597Z,102650.25
2022-12-18T07:21:51.675Z,102658.84
2022-12-18T07:26:54.756Z,102644.06
2022-12-18T07:31:59.230Z,102627.16
2022-12-18T07:37:02.144Z,102614.44
2022-12-18T07:42:23.060Z,102609.44
2022-12-18T07:47:27.435Z,102593.19
2022-12-18T07:52:31.083Z,102584.31
2022-12-18T07:57:50.031Z,102588.09
2022-12-18T08:02:55.669Z,102589.50
2022-12-18T08:07:58.507Z,102592.66
2022-12-18T08:13:04.906Z,102597.59
2022-12-18T08:18:14.053Z,102606.44
2022-12-18T08:23:17.297Z,102613.41
2022-12-18T08:28:20.295Z,102624.50
2022-12-18T08:33:24.515Z,102627.13
2022-12-18T08:38:27.325Z,102632.63
2022-12-18T08:43:47.627Z,102625.97
2022-12-18T08:48:52.376Z,102595.78
2022-12-18T08:53:55.241Z,102594.78
2022-12-18T08:58:58.281Z,102596.38
2022-12-18T09:04:02.440Z,102589.59
2022-12-18T09:09:06.178Z,102595.06
2022-12-18T09:14:09.151Z,102600.06
2022-12-18T09:19:13.333Z,102620.84
2022-12-18T09:24:16.277Z,102580.34
2022-12-18T09:29:19.219Z,102582.16
2022-12-18T09:34:23.667Z,102559.28
2022-12-18T09:39:26.456Z,102556.47
2022-12-18T09:44:31.254Z,102557.03
2022-12-18T09:49:37.371Z,102548.28
2022-12-18T09:54:41.635Z,102545.53
2022-12-18T09:59:46.963Z,102537.78
2022-12-18T10:05:02.987Z,102513.81
2022-12-18T10:10:09.427Z,102525.56
2022-12-18T10:15:17.517Z,102499.66
2022-12-18T10:20:27.964Z,102545.31
2022-12-18T10:25:34.194Z,102525.97
2022-12-18T10:30:37.075Z,102536.75
2022-12-18T10:35:43.371Z,102540.53
2022-12-18T10:40:54.260Z,102543.81
2022-12-18T10:46:03.844Z,102531.38
2022-12-18T10:51:12.694Z,102521.06
2022-12-18T10:56:22.224Z,102500.03
2022-12-18T11:01:25.202Z,102495.50
2022-12-18T11:06:29.547Z,102492.88
2022-12-18T11:11:33.770Z,102480.97
2022-12-18T11:16:38.832Z,102471.91
2022-12-18T11:21:44.006Z,102477.41
2022-12-18T11:26:46.829Z,102483.38
2022-12-18T11:31:49.704Z,102484.41
2022-12-18T11:36:54.689Z,102474.53
2022-12-18T11:42:13.478Z,102465.00
2022-12-18T11:47:24.074Z,102444.44
2022-12-18T11:52:31.359Z,102444.56
2022-12-18T11:57:39.711Z,102429.47
2022-12-18T12:03:06.245Z,102407.25
2022-12-18T12:08:17.558Z,102408.50
2022-12-18T12:13:29.899Z,102417.38
2022-12-18T12:18:43.508Z,102396.72
2022-12-18T12:23:56.223Z,102367.41
2022-12-18T12:29:10.438Z,102387.34
2022-12-18T12:34:19.567Z,102380.06
2022-12-18T12:39:26.487Z,102384.09
2022-12-18T12:44:31.910Z,102388.53
2022-12-18T12:49:40.622Z,102370.53
2022-12-18T12:54:45.984Z,102380.06
2022-12-18T12:59:53.404Z,102354.03
2022-12-18T13:04:59.853Z,102355.44
2022-12-18T13:10:35.618Z,102336.84
2022-12-18T13:15:44.216Z,102332.31
2022-12-18T13:20:54.456Z,102326.03
2022-12-18T13:26:01.676Z,102310.13
2022-12-18T13:31:05.118Z,102300.09
2022-12-18T13:36:15.538Z,102284.00
2022-12-18T13:41:28.116Z,102277.69
2022-12-18T13:46:32.857Z,102264.75
2022-12-18T13:51:36.576Z,102263.94
2022-12-18T13:56:46.389Z,102246.28
2022-12-18T14:01:53.747Z,102257.19
2022-12-18T14:07:00.127Z,102251.25
2022-12-18T14:12:37.113Z,102239.19
2022-12-18T14:17:39.919Z,102232.44
2022-12-18T14:22:45.388Z,102229.09
2022-12-18T14:27:52.493Z,102227.47
2022-12-18T14:33:11.182Z,102224.16
2022-12-18T14:38:26.318Z,102203.88
2022-12-18T14:43:31.703Z,102170.06
2022-12-18T14:48:39.852Z,102172.78
2022-12-18T14:53:50.560Z,102159.44
2022-12-18T14:58:59.506Z,102156.53
2022-12-18T15:04:04.024Z,102168.13
2022-12-18T15:09:23.379Z,102164.63
2022-12-18T15:14:34.006Z,102149.38
2022-12-18T15:19:40.919Z,102145.88
2022-12-18T15:24:44.142Z,102153.63
2022-12-18T15:30:02.177Z,102153.03
2022-12-18T15:35:09.895Z,102136.75
2022-12-18T15:40:15.323Z,102092.31
2022-12-18T15:45:21.791Z,102121.38
2022-12-18T15:50:27.316Z,102107.00
2022-12-18T15:55:48.945Z,102077.94
2022-12-18T16:00:53.341Z,102084.69
2022-12-18T16:05:56.240Z,102096.75
2022-12-18T16:11:00.159Z,102091.84
2022-12-18T16:16:04.413Z,102093.53
2022-12-18T16:21:07.564Z,102070.47
2022-12-18T16:26:10.364Z,102073.03
2022-12-18T16:31:14.686Z,102067.09
2022-12-18T16:36:17.617Z,102054.41
2022-12-18T16:41:33.055Z,102051.06
2022-12-18T16:46:37.376Z,102038.38
2022-12-18T16:51:40.317Z,102035.00
2022-12-18T16:56:43.156Z,102028.19
2022-12-18T17:01:49.997Z,102032.50
2022-12-18T17:06:54.202Z,102028.41
2022-12-18T17:11:57.122Z,102028.56
2022-12-18T17:17:20.858Z,102042.28
2022-12-18T17:22:24.449Z,102025.06
2022-12-18T17:27:27.388Z,102033.13
2022-12-18T17:32:31.557Z,102027.34
2022-12-18T17:37:34.420Z,102021.34
2022-12-18T17:42:37.501Z,102019.69
2022-12-18T17:47:42.253Z,102018.94
2022-12-18T17:52:45.103Z,102005.19
2022-12-18T17:57:47.924Z,102003.56
2022-12-18T18:02:52.527Z,101995.16
2022-12-18T18:07:55.560Z,101995.22
2022-12-18T18:13:16.117Z,102004.00
2022-12-18T18:18:20.299Z,101987.91
2022-12-18T18:23:25.022Z,101993.84
2022-12-18T18:28:27.896Z,101986.16
2022-12-18T18:33:32.386Z,101982.88
2022-12-18T18:38:35.195Z,101986.63
2022-12-18T18:43:38.243Z,101964.03
2022-12-18T18:48:43.013Z,101973.16
2022-12-18T18:53:48.268Z,101968.78
2022-12-18T18:58:51.779Z,101954.47
2022-12-18T19:03:56.220Z,101957.94
2022-12-18T19:08:59.548Z,101945.91
2022-12-18T19:14:04.581Z,101941.75
2022-12-18T19:19:09.774Z,101952.38
2022-12-18T19:24:12.818Z,101950.75
2022-12-18T19:29:15.959Z,101955.41
2022-12-18T19:34:20.140Z,101948.53
2022-12-18T19:39:23.033Z,101940.59
2022-12-18T19:44:26.841Z,101948.28
2022-12-18T19:49:32.649Z,101955.94
2022-12-18T19:54:35.546Z,101946.28
2022-12-18T19:59:38.986Z,101940.38
2022-12-18T20:04:43.805Z,101928.41
2022-12-18T20:09:46.563Z,101928.47
2022-12-18T20:14:49.723Z,101927.22
2022-12-18T20:19:53.891Z,101927.28
2022-12-18T20:24:57.002Z,101915.28
2022-12-18T20:29:59.932Z,101899.81
2022-12-18T20:35:04.390Z,101901.47
2022-12-18T20:40:10.517Z,101892.19
2022-12-18T20:45:13.415Z,101882.72
2022-12-18T20:50:17.790Z,101870.75
2022-12-18T20:55:20.650Z,101869.78
2022-12-18T21:00:23.506Z,101843.91
2022-12-18T21:05:27.636Z,101856.09
2022-12-18T21:10:30.537Z,101843.31
2022-12-18T21:15:33.791Z,101838.22
2022-12-18T21:20:37.977Z,101839.97
2022-12-18T21:25:40.929Z,101821.19
2022-12-18T21:30:44.042Z,101809.47
2022-12-18T21:35:48.317Z,101800.00
2022-12-18T21:40:51.143Z,101796.66
2022-12-18T21:45:54.138Z,101791.50
2022-12-18T21:50:59.896Z,101785.59
2022-12-18T21:56:02.776Z,101767.66
2022-12-18T22:01:05.621Z,101766.78
2022-12-18T22:06:10.037Z,101756.53
2022-12-18T22:11:13.849Z,101749.78
2022-12-18T22:16:17.431Z,101736.19
2022-12-18T22:21:29.237Z,101717.38
2022-12-18T22:26:39.468Z,101677.81
2022-12-18T22:31:43.118Z,101680.69
2022-12-18T22:36:48.935Z,101668.81
2022-12-18T22:41:51.798Z,101665.28
2022-12-18T22:46:56.189Z,101658.59
2022-12-18T22:52:12.861Z,101653.28
2022-12-18T22:57:17.749Z,101654.34
2022-12-18T23:02:21.000Z,101657.97
2022-12-18T23:07:25.270Z,101645.94
2022-12-18T23:12:28.140Z,101646.94
2022-12-18T23:17:33.069Z,101634.22
2022-12-18T23:22:37.363Z,101624.03
2022-12-18T23:27:42.918Z,101624.97
2022-12-18T23:32:45.748Z,101607.84
2022-12-18T23:37:58.693Z,101604.59
2022-12-18T23:43:02.401Z,101610.81
2022-12-18T23:48:05.446Z,101633.25
2022-12-18T23:53:10.401Z,101629.19
2022-12-18T23:58:18.376Z,101619.09
